sensor_id;sensor_type;location;lat;lon;timestamp;pressure;altitude;pressure_sealevel;temperature
77414;BMP280;66486;49.992;19.164;2023-05-19T00:01:39;99782.81;;;10.73
77414;BMP280;66486;49.992;19.164;2023-05-19T00:04:09;99778.19;;;10.73
77414;BMP280;66486;49.992;19.164;2023-05-19T00:06:37;99779.41;;;10.61
77414;BMP280;66486;49.992;19.164;2023-05-19T00:09:05;99770.56;;;10.57
77414;BMP280;66486;49.992;19.164;2023-05-19T00:11:33;99776.72;;;10.30
77414;BMP280;66486;49.992;19.164;2023-05-19T00:14:02;99774.81;;;10.37
77414;BMP280;66486;49.992;19.164;2023-05-19T00:16:29;99774.78;;;10.55
77414;BMP280;66486;49.992;19.164;2023-05-19T00:19:00;99771.72;;;10.53
77414;BMP280;66486;49.992;19.164;2023-05-19T00:21:26;99772.88;;;10.52
77414;BMP280;66486;49.992;19.164;2023-05-19T00:23:53;99768.56;;;10.76
77414;BMP280;66486;49.992;19.164;2023-05-19T00:26:19;99766.25;;;10.74
77414;BMP280;66486;49.992;19.164;2023-05-19T00:28:48;99766.25;;;10.71
77414;BMP280;66486;49.992;19.164;2023-05-19T00:31:14;99760.84;;;10.81
77414;BMP280;66486;49.992;19.164;2023-05-19T00:33:40;99760.06;;;10.88
77414;BMP280;66486;49.992;19.164;2023-05-19T00:36:07;99758.53;;;10.90
77414;BMP280;66486;49.992;19.164;2023-05-19T00:38:35;99760.84;;;10.92
77414;BMP280;66486;49.992;19.164;2023-05-19T00:41:02;99755.50;;;10.71
77414;BMP280;66486;49.992;19.164;2023-05-19T00:43:29;99749.09;;;10.15
77414;BMP280;66486;49.992;19.164;2023-05-19T00:45:56;99754.09;;;10.06
77414;BMP280;66486;49.992;19.164;2023-05-19T00:48:24;99755.25;;;10.37
77414;BMP280;66486;49.992;19.164;2023-05-19T00:50:52;99757.16;;;10.22
77414;BMP280;66486;49.992;19.164;2023-05-19T00:53:20;99751.78;;;10.29
77414;BMP280;66486;49.992;19.164;2023-05-19T00:55:48;99748.69;;;10.34
77414;BMP280;66486;49.992;19.164;2023-05-19T00:58:14;99756.38;;;10.32
77414;BMP280;66486;49.992;19.164;2023-05-19T01:00:40;99754.47;;;10.08
77414;BMP280;66486;49.992;19.164;2023-05-19T01:03:08;99745.28;;;9.98
77414;BMP280;66486;49.992;19.164;2023-05-19T01:05:40;99741.81;;;10.05
77414;BMP280;66486;49.992;19.164;2023-05-19T01:08:07;99734.50;;;10.20
77414;BMP280;66486;49.992;19.164;2023-05-19T01:10:33;99733.38;;;10.10
77414;BMP280;66486;49.992;19.164;2023-05-19T01:13:01;99744.91;;;9.93
77414;BMP280;66486;49.992;19.164;2023-05-19T01:15:27;99743.34;;;9.71
77414;BMP280;66486;49.992;19.164;2023-05-19T01:23:46;99736.06;;;9.82
77414;BMP280;66486;49.992;19.164;2023-05-19T01:26:46;99738.75;;;9.89
77414;BMP280;66486;49.992;19.164;2023-05-19T01:29:32;99738.75;;;9.96
77414;BMP280;66486;49.992;19.164;2023-05-19T01:32:04;99734.13;;;9.82
77414;BMP280;66486;49.992;19.164;2023-05-19T01:34:33;99740.28;;;9.90
77414;BMP280;66486;49.992;19.164;2023-05-19T01:37:00;99740.28;;;10.08
77414;BMP280;66486;49.992;19.164;2023-05-19T01:39:27;99736.44;;;10.02
77414;BMP280;66486;49.992;19.164;2023-05-19T01:41:53;99724.16;;;10.11
77414;BMP280;66486;49.992;19.164;2023-05-19T01:44:20;99725.34;;;9.85
77414;BMP280;66486;49.992;19.164;2023-05-19T01:46:47;99711.47;;;10.12
77414;BMP280;66486;49.992;19.164;2023-05-19T01:49:14;99716.50;;;9.95
77414;BMP280;66486;49.992;19.164;2023-05-19T01:51:40;99719.19;;;9.92
77414;BMP280;66486;49.992;19.164;2023-05-19T01:54:06;99719.56;;;9.94
77414;BMP280;66486;49.992;19.164;2023-05-19T01:56:40;99709.53;;;10.19
77414;BMP280;66486;49.992;19.164;2023-05-19T01:59:27;99713.66;;;10.48
77414;BMP280;66486;49.992;19.164;2023-05-19T02:02:01;99712.91;;;10.62
77414;BMP280;66486;49.992;19.164;2023-05-19T02:05:20;99702.16;;;10.41
77414;BMP280;66486;49.992;19.164;2023-05-19T02:10:19;99704.44;;;10.49
77414;BMP280;66486;49.992;19.164;2023-05-19T02:12:50;99711.44;;;10.15
77414;BMP280;66486;49.992;19.164;2023-05-19T02:15:25;99716.84;;;9.90
77414;BMP280;66486;49.992;19.164;2023-05-19T02:17:54;99712.25;;;9.94
77414;BMP280;66486;49.992;19.164;2023-05-19T02:20:20;99710.72;;;9.76
77414;BMP280;66486;49.992;19.164;2023-05-19T02:22:49;99711.13;;;9.81
77414;BMP280;66486;49.992;19.164;2023-05-19T02:25:15;99712.25;;;10.12
77414;BMP280;66486;49.992;19.164;2023-05-19T02:27:41;99717.25;;;10.03
77414;BMP280;66486;49.992;19.164;2023-05-19T02:30:08;99706.88;;;10.02
77414;BMP280;66486;49.992;19.164;2023-05-19T02:32:34;99702.63;;;10.18
77414;BMP280;66486;49.992;19.164;2023-05-19T02:35:02;99696.44;;;10.35
77414;BMP280;66486;49.992;19.164;2023-05-19T02:37:28;99699.13;;;10.35
77414;BMP280;66486;49.992;19.164;2023-05-19T02:39:54;99699.91;;;10.25
77414;BMP280;66486;49.992;19.164;2023-05-19T02:42:20;99707.19;;;10.32
77414;BMP280;66486;49.992;19.164;2023-05-19T02:44:47;99708.72;;;10.40
77414;BMP280;66486;49.992;19.164;2023-05-19T02:47:13;99694.09;;;10.41
77414;BMP280;66486;49.992;19.164;2023-05-19T02:49:39;99702.13;;;10.58
77414;BMP280;66486;49.992;19.164;2023-05-19T02:52:07;99692.88;;;10.59
77414;BMP280;66486;49.992;19.164;2023-05-19T02:54:33;99702.13;;;10.58
77414;BMP280;66486;49.992;19.164;2023-05-19T02:57:00;99689.16;;;10.25
77414;BMP280;66486;49.992;19.164;2023-05-19T02:59:26;99693.41;;;9.98
77414;BMP280;66486;49.992;19.164;2023-05-19T03:02:01;99690.75;;;9.91
77414;BMP280;66486;49.992;19.164;2023-05-19T03:04:28;99692.66;;;9.94
77414;BMP280;66486;49.992;19.164;2023-05-19T03:06:54;99689.59;;;9.57
77414;BMP280;66486;49.992;19.164;2023-05-19T03:09:20;99693.44;;;9.56
77414;BMP280;66486;49.992;19.164;2023-05-19T03:11:46;99691.91;;;9.62
77414;BMP280;66486;49.992;19.164;2023-05-19T03:14:12;99686.50;;;9.79
77414;BMP280;66486;49.992;19.164;2023-05-19T03:16:39;99685.41;;;9.59
77414;BMP280;66486;49.992;19.164;2023-05-19T03:19:07;99688.06;;;9.56
77414;BMP280;66486;49.992;19.164;2023-05-19T03:21:33;99689.63;;;9.78
77414;BMP280;66486;49.992;19.164;2023-05-19T03:24:00;99699.19;;;9.96
77414;BMP280;66486;49.992;19.164;2023-05-19T03:26:26;99690.00;;;9.76
77414;BMP280;66486;49.992;19.164;2023-05-19T03:28:54;99703.06;;;9.74
77414;BMP280;66486;49.992;19.164;2023-05-19T03:31:20;99692.66;;;9.73
77414;BMP280;66486;49.992;19.164;2023-05-19T03:33:46;99698.84;;;9.70
77414;BMP280;66486;49.992;19.164;2023-05-19T03:36:12;99696.13;;;9.63
77414;BMP280;66486;49.992;19.164;2023-05-19T03:38:38;99699.19;;;9.58
77414;BMP280;66486;49.992;19.164;2023-05-19T03:41:04;99698.47;;;9.78
77414;BMP280;66486;49.992;19.164;2023-05-19T03:43:30;99701.91;;;9.68
77414;BMP280;66486;49.992;19.164;2023-05-19T03:45:56;99701.13;;;9.82
77414;BMP280;66486;49.992;19.164;2023-05-19T03:48:22;99698.81;;;9.80
77414;BMP280;66486;49.992;19.164;2023-05-19T03:50:48;99711.88;;;10.03
77414;BMP280;66486;49.992;19.164;2023-05-19T03:53:14;99705.31;;;10.04
77414;BMP280;66486;49.992;19.164;2023-05-19T03:55:40;99704.97;;;9.95
77414;BMP280;66486;49.992;19.164;2023-05-19T03:58:06;99709.56;;;9.73
77414;BMP280;66486;49.992;19.164;2023-05-19T04:00:32;99722.22;;;9.62
77414;BMP280;66486;49.992;19.164;2023-05-19T04:02:58;99719.91;;;9.61
77414;BMP280;66486;49.992;19.164;2023-05-19T04:05:24;99713.03;;;9.67
77414;BMP280;66486;49.992;19.164;2023-05-19T04:07:51;99713.03;;;9.74
77414;BMP280;66486;49.992;19.164;2023-05-19T04:10:17;99714.16;;;9.80
77414;BMP280;66486;49.992;19.164;2023-05-19T04:12:43;99717.25;;;9.82
77414;BMP280;66486;49.992;19.164;2023-05-19T04:15:10;99700.38;;;9.64
77414;BMP280;66486;49.992;19.164;2023-05-19T04:17:37;99713.03;;;9.77
77414;BMP280;66486;49.992;19.164;2023-05-19T04:20:03;99714.13;;;10.05
77414;BMP280;66486;49.992;19.164;2023-05-19T04:22:31;99710.34;;;9.84
77414;BMP280;66486;49.992;19.164;2023-05-19T04:24:57;99716.47;;;10.06
77414;BMP280;66486;49.992;19.164;2023-05-19T04:27:24;99709.56;;;10.02
77414;BMP280;66486;49.992;19.164;2023-05-19T04:29:50;99701.84;;;10.28
77414;BMP280;66486;49.992;19.164;2023-05-19T04:32:16;99713.00;;;10.16
77414;BMP280;66486;49.992;19.164;2023-05-19T04:34:42;99711.03;;;10.31
77414;BMP280;66486;49.992;19.164;2023-05-19T04:37:11;99707.25;;;10.18
77414;BMP280;66486;49.992;19.164;2023-05-19T04:39:39;99718.00;;;10.14
77414;BMP280;66486;49.992;19.164;2023-05-19T04:42:08;99710.66;;;10.22
77414;BMP280;66486;49.992;19.164;2023-05-19T04:44:36;99712.94;;;10.30
77414;BMP280;66486;49.992;19.164;2023-05-19T04:47:06;99716.81;;;10.19
77414;BMP280;66486;49.992;19.164;2023-05-19T04:49:34;99713.41;;;10.04
77414;BMP280;66486;49.992;19.164;2023-05-19T04:52:07;99716.81;;;10.33
77414;BMP280;66486;49.992;19.164;2023-05-19T04:54:38;99726.38;;;10.30
77414;BMP280;66486;49.992;19.164;2023-05-19T04:57:05;99716.03;;;10.32
77414;BMP280;66486;49.992;19.164;2023-05-19T04:59:30;99718.28;;;10.58
77414;BMP280;66486;49.992;19.164;2023-05-19T05:01:57;99709.72;;;10.74
77414;BMP280;66486;49.992;19.164;2023-05-19T05:04:23;99721.78;;;10.34
77414;BMP280;66486;49.992;19.164;2023-05-19T05:06:49;99724.91;;;10.22
77414;BMP280;66486;49.992;19.164;2023-05-19T05:09:15;99724.44;;;10.38
77414;BMP280;66486;49.992;19.164;2023-05-19T05:11:42;99726.78;;;10.32
77414;BMP280;66486;49.992;19.164;2023-05-19T05:14:08;99718.34;;;10.27
77414;BMP280;66486;49.992;19.164;2023-05-19T05:16:35;99721.38;;;10.53
77414;BMP280;66486;49.992;19.164;2023-05-19T05:19:01;99718.63;;;10.64
77414;BMP280;66486;49.992;19.164;2023-05-19T05:21:28;99711.38;;;10.50
77414;BMP280;66486;49.992;19.164;2023-05-19T05:23:54;99715.56;;;10.69
77414;BMP280;66486;49.992;19.164;2023-05-19T05:26:20;99715.97;;;10.46
77414;BMP280;66486;49.992;19.164;2023-05-19T05:28:50;99722.13;;;10.50
77414;BMP280;66486;49.992;19.164;2023-05-19T05:31:16;99727.50;;;10.57
77414;BMP280;66486;49.992;19.164;2023-05-19T05:33:43;99721.34;;;10.60
77414;BMP280;66486;49.992;19.164;2023-05-19T05:36:09;99737.06;;;10.76
77414;BMP280;66486;49.992;19.164;2023-05-19T05:38:35;99717.81;;;10.78
77414;BMP280;66486;49.992;19.164;2023-05-19T05:41:01;99727.78;;;10.84
77414;BMP280;66486;49.992;19.164;2023-05-19T05:43:28;99703.91;;;10.86
77414;BMP280;66486;49.992;19.164;2023-05-19T05:45:55;99728.50;;;10.95
77414;BMP280;66486;49.992;19.164;2023-05-19T05:48:21;99741.13;;;11.09
77414;BMP280;66486;49.992;19.164;2023-05-19T05:50:48;99740.22;;;11.26
77414;BMP280;66486;49.992;19.164;2023-05-19T05:53:19;99729.94;;;11.65
77414;BMP280;66486;49.992;19.164;2023-05-19T05:55:46;99741.91;;;11.68
77414;BMP280;66486;49.992;19.164;2023-05-19T05:58:12;99736.78;;;11.77
77414;BMP280;66486;49.992;19.164;2023-05-19T06:00:40;99741.09;;;11.71
77414;BMP280;66486;49.992;19.164;2023-05-19T06:03:10;99745.09;;;11.52
77414;BMP280;66486;49.992;19.164;2023-05-19T06:05:36;99740.78;;;11.62
77414;BMP280;66486;49.992;19.164;2023-05-19T06:08:02;99741.72;;;11.85
77414;BMP280;66486;49.992;19.164;2023-05-19T06:10:29;99732.22;;;11.74
77414;BMP280;66486;49.992;19.164;2023-05-19T06:12:55;99743.81;;;11.67
77414;BMP280;66486;49.992;19.164;2023-05-19T06:15:21;99737.97;;;11.72
77414;BMP280;66486;49.992;19.164;2023-05-19T06:17:47;99739.63;;;11.59
77414;BMP280;66486;49.992;19.164;2023-05-19T06:20:13;99737.31;;;11.58
77414;BMP280;66486;49.992;19.164;2023-05-19T06:22:40;99740.03;;;11.61
77414;BMP280;66486;49.992;19.164;2023-05-19T06:25:07;99733.16;;;11.53
77414;BMP280;66486;49.992;19.164;2023-05-19T06:27:35;99738.88;;;11.59
77414;BMP280;66486;49.992;19.164;2023-05-19T06:30:02;99745.69;;;11.74
77414;BMP280;66486;49.992;19.164;2023-05-19T06:32:28;99757.97;;;11.82
77414;BMP280;66486;49.992;19.164;2023-05-19T06:34:54;99751.31;;;11.93
77414;BMP280;66486;49.992;19.164;2023-05-19T06:37:21;99756.06;;;11.79
77414;BMP280;66486;49.992;19.164;2023-05-19T06:39:53;99766.94;;;11.65
77414;BMP280;66486;49.992;19.164;2023-05-19T06:42:19;99764.00;;;11.93
77414;BMP280;66486;49.992;19.164;2023-05-19T06:44:51;99770.09;;;12.04
77414;BMP280;66486;49.992;19.164;2023-05-19T06:47:17;99756.00;;;11.86
77414;BMP280;66486;49.992;19.164;2023-05-19T06:49:45;99759.97;;;11.71
77414;BMP280;66486;49.992;19.164;2023-05-19T06:52:11;99756.69;;;11.93
77414;BMP280;66486;49.992;19.164;2023-05-19T06:54:37;99771.09;;;11.76
77414;BMP280;66486;49.992;19.164;2023-05-19T06:57:03;99758.34;;;11.77
77414;BMP280;66486;49.992;19.164;2023-05-19T06:59:29;99762.59;;;11.78
77414;BMP280;66486;49.992;19.164;2023-05-19T07:01:55;99754.69;;;12.05
77414;BMP280;66486;49.992;19.164;2023-05-19T07:04:21;99766.72;;;12.34
77414;BMP280;66486;49.992;19.164;2023-05-19T07:06:47;99759.81;;;12.29
77414;BMP280;66486;49.992;19.164;2023-05-19T07:09:15;99759.31;;;12.04
77414;BMP280;66486;49.992;19.164;2023-05-19T07:11:41;99758.59;;;11.97
77414;BMP280;66486;49.992;19.164;2023-05-19T07:14:07;99755.03;;;12.07
77414;BMP280;66486;49.992;19.164;2023-05-19T07:16:33;99755.41;;;12.09
77414;BMP280;66486;49.992;19.164;2023-05-19T07:18:59;99747.25;;;12.16
77414;BMP280;66486;49.992;19.164;2023-05-19T07:21:25;99750.88;;;12.36
77414;BMP280;66486;49.992;19.164;2023-05-19T07:23:51;99745.53;;;12.32
77414;BMP280;66486;49.992;19.164;2023-05-19T07:26:17;99752.78;;;12.39
77414;BMP280;66486;49.992;19.164;2023-05-19T07:28:43;99755.56;;;12.66
77414;BMP280;66486;49.992;19.164;2023-05-19T07:31:09;99752.78;;;12.73
77414;BMP280;66486;49.992;19.164;2023-05-19T07:33:35;99757.59;;;12.88
77414;BMP280;66486;49.992;19.164;2023-05-19T07:36:01;99752.50;;;13.20
77414;BMP280;66486;49.992;19.164;2023-05-19T07:38:29;99747.72;;;13.31
77414;BMP280;66486;49.992;19.164;2023-05-19T07:40:55;99753.25;;;13.24
77414;BMP280;66486;49.992;19.164;2023-05-19T07:43:21;99744.19;;;13.08
77414;BMP280;66486;49.992;19.164;2023-05-19T07:45:47;99753.72;;;13.43
77414;BMP280;66486;49.992;19.164;2023-05-19T07:48:13;99759.81;;;13.73
77414;BMP280;66486;49.992;19.164;2023-05-19T07:50:39;99764.69;;;13.82
77414;BMP280;66486;49.992;19.164;2023-05-19T07:53:06;99761.28;;;13.28
77414;BMP280;66486;49.992;19.164;2023-05-19T07:55:32;99760.28;;;13.18
77414;BMP280;66486;49.992;19.164;2023-05-19T07:57:58;99751.91;;;13.36
77414;BMP280;66486;49.992;19.164;2023-05-19T08:00:23;99758.47;;;13.35
77414;BMP280;66486;49.992;19.164;2023-05-19T08:02:50;99759.72;;;13.30
77414;BMP280;66486;49.992;19.164;2023-05-19T08:05:17;99744.91;;;13.39
77414;BMP280;66486;49.992;19.164;2023-05-19T08:07:43;99747.72;;;13.31
77414;BMP280;66486;49.992;19.164;2023-05-19T08:10:09;99745.34;;;13.10
77414;BMP280;66486;49.992;19.164;2023-05-19T08:12:35;99746.13;;;13.07
77414;BMP280;66486;49.992;19.164;2023-05-19T08:15:01;99735.03;;;13.28
77414;BMP280;66486;49.992;19.164;2023-05-19T08:17:27;99732.69;;;13.04
77414;BMP280;66486;49.992;19.164;2023-05-19T08:19:53;99754.78;;;13.49
77414;BMP280;66486;49.992;19.164;2023-05-19T08:22:19;99747.34;;;13.79
77414;BMP280;66486;49.992;19.164;2023-05-19T08:24:45;99758.81;;;14.30
77414;BMP280;66486;49.992;19.164;2023-05-19T08:27:14;99735.94;;;13.91
77414;BMP280;66486;49.992;19.164;2023-05-19T08:29:41;99756.47;;;13.66
77414;BMP280;66486;49.992;19.164;2023-05-19T08:32:07;99766.28;;;13.79
77414;BMP280;66486;49.992;19.164;2023-05-19T08:34:33;99781.94;;;13.91
77414;BMP280;66486;49.992;19.164;2023-05-19T08:36:59;99778.94;;;13.59
77414;BMP280;66486;49.992;19.164;2023-05-19T08:39:25;99770.25;;;13.71
77414;BMP280;66486;49.992;19.164;2023-05-19T08:41:53;99772.41;;;14.03
77414;BMP280;66486;49.992;19.164;2023-05-19T08:44:19;99776.00;;;13.96
77414;BMP280;66486;49.992;19.164;2023-05-19T08:46:48;99785.91;;;13.60
77414;BMP280;66486;49.992;19.164;2023-05-19T08:49:20;99785.19;;;13.56
77414;BMP280;66486;49.992;19.164;2023-05-19T08:55:08;99777.06;;;13.83
77414;BMP280;66486;49.992;19.164;2023-05-19T08:57:37;99778.72;;;13.50
77414;BMP280;66486;49.992;19.164;2023-05-19T09:00:03;99778.38;;;13.71
77414;BMP280;66486;49.992;19.164;2023-05-19T09:02:40;99788.00;;;13.76
77414;BMP280;66486;49.992;19.164;2023-05-19T09:05:07;99784.97;;;13.93
77414;BMP280;66486;49.992;19.164;2023-05-19T09:07:35;99764.91;;;13.68
77414;BMP280;66486;49.992;19.164;2023-05-19T09:10:02;99781.22;;;13.87
77414;BMP280;66486;49.992;19.164;2023-05-19T09:12:29;99785.75;;;13.94
77414;BMP280;66486;49.992;19.164;2023-05-19T09:14:56;99775.34;;;14.35
77414;BMP280;66486;49.992;19.164;2023-05-19T09:17:22;99769.97;;;14.32
77414;BMP280;66486;49.992;19.164;2023-05-19T09:19:48;99786.97;;;14.32
77414;BMP280;66486;49.992;19.164;2023-05-19T09:22:15;99778.00;;;14.16
77414;BMP280;66486;49.992;19.164;2023-05-19T09:24:43;99776.06;;;14.16
77414;BMP280;66486;49.992;19.164;2023-05-19T09:27:13;99775.78;;;14.69
77414;BMP280;66486;49.992;19.164;2023-05-19T09:29:40;99779.41;;;14.83
77414;BMP280;66486;49.992;19.164;2023-05-19T09:32:06;99774.22;;;14.72
77414;BMP280;66486;49.992;19.164;2023-05-19T09:34:32;99777.06;;;14.45
77414;BMP280;66486;49.992;19.164;2023-05-19T09:36:58;99773.16;;;14.27
77414;BMP280;66486;49.992;19.164;2023-05-19T09:39:25;99775.94;;;14.23
77414;BMP280;66486;49.992;19.164;2023-05-19T09:41:52;99778.09;;;14.51
77414;BMP280;66486;49.992;19.164;2023-05-19T09:44:25;99769.78;;;14.42
77414;BMP280;66486;49.992;19.164;2023-05-19T09:46:56;99770.41;;;14.50
77414;BMP280;66486;49.992;19.164;2023-05-19T09:49:24;99769.06;;;14.38
77414;BMP280;66486;49.992;19.164;2023-05-19T09:51:54;99761.25;;;14.24
77414;BMP280;66486;49.992;19.164;2023-05-19T09:54:23;99768.25;;;14.41
77414;BMP280;66486;49.992;19.164;2023-05-19T09:57:00;99772.13;;;14.60
77414;BMP280;66486;49.992;19.164;2023-05-19T09:59:27;99773.69;;;14.61
77414;BMP280;66486;49.992;19.164;2023-05-19T10:01:55;99778.03;;;14.91
77414;BMP280;66486;49.992;19.164;2023-05-19T10:04:22;99776.00;;;14.78
77414;BMP280;66486;49.992;19.164;2023-05-19T10:06:49;99770.38;;;14.89
77414;BMP280;66486;49.992;19.164;2023-05-19T10:09:24;99771.19;;;15.22
77414;BMP280;66486;49.992;19.164;2023-05-19T10:11:52;99750.16;;;15.26
77414;BMP280;66486;49.992;19.164;2023-05-19T10:14:23;99754.03;;;15.57
77414;BMP280;66486;49.992;19.164;2023-05-19T10:16:50;99765.84;;;15.50
77414;BMP280;66486;49.992;19.164;2023-05-19T10:19:21;99751.41;;;15.70
77414;BMP280;66486;49.992;19.164;2023-05-19T10:21:48;99754.75;;;16.18
77414;BMP280;66486;49.992;19.164;2023-05-19T10:24:15;99753.75;;;16.00
77414;BMP280;66486;49.992;19.164;2023-05-19T10:26:52;99749.78;;;16.01
77414;BMP280;66486;49.992;19.164;2023-05-19T10:29:24;99761.81;;;15.87
77414;BMP280;66486;49.992;19.164;2023-05-19T10:31:54;99749.06;;;15.56
77414;BMP280;66486;49.992;19.164;2023-05-19T10:39:42;99748.69;;;14.89
77414;BMP280;66486;49.992;19.164;2023-05-19T10:42:15;99757.16;;;15.07
77414;BMP280;66486;49.992;19.164;2023-05-19T10:47:22;99759.13;;;15.39
77414;BMP280;66486;49.992;19.164;2023-05-19T10:49:51;99758.03;;;15.36
77414;BMP280;66486;49.992;19.164;2023-05-19T10:52:22;99753.22;;;15.28
77414;BMP280;66486;49.992;19.164;2023-05-19T10:54:50;99743.09;;;14.96
77414;BMP280;66486;49.992;19.164;2023-05-19T10:57:24;99762.28;;;14.86
77414;BMP280;66486;49.992;19.164;2023-05-19T10:59:51;99760.59;;;14.75
77414;BMP280;66486;49.992;19.164;2023-05-19T11:02:42;99762.91;;;14.93
77414;BMP280;66486;49.992;19.164;2023-05-19T11:05:15;99761.97;;;14.84
77414;BMP280;66486;49.992;19.164;2023-05-19T11:07:55;99740.34;;;15.16
77414;BMP280;66486;49.992;19.164;2023-05-19T11:10:24;99736.06;;;15.63
77414;BMP280;66486;49.992;19.164;2023-05-19T11:12:51;99753.63;;;15.42
77414;BMP280;66486;49.992;19.164;2023-05-19T11:15:17;99754.28;;;15.63
77414;BMP280;66486;49.992;19.164;2023-05-19T11:17:47;99757.00;;;16.07
77414;BMP280;66486;49.992;19.164;2023-05-19T11:23:15;99751.81;;;16.13
77414;BMP280;66486;49.992;19.164;2023-05-19T11:25:49;99755.50;;;15.45
77414;BMP280;66486;49.992;19.164;2023-05-19T11:28:17;99748.28;;;15.55
77414;BMP280;66486;49.992;19.164;2023-05-19T11:30:45;99753.03;;;15.67
77414;BMP280;66486;49.992;19.164;2023-05-19T11:33:14;99753.69;;;15.71
77414;BMP280;66486;49.992;19.164;2023-05-19T11:35:47;99749.50;;;15.99
77414;BMP280;66486;49.992;19.164;2023-05-19T11:38:17;99750.19;;;15.87
77414;BMP280;66486;49.992;19.164;2023-05-19T11:40:43;99757.13;;;16.16
77414;BMP280;66486;49.992;19.164;2023-05-19T11:43:09;99754.59;;;16.25
77414;BMP280;66486;49.992;19.164;2023-05-19T11:45:35;99754.09;;;16.56
77414;BMP280;66486;49.992;19.164;2023-05-19T11:48:02;99763.03;;;16.69
77414;BMP280;66486;49.992;19.164;2023-05-19T11:50:30;99763.53;;;16.64
77414;BMP280;66486;49.992;19.164;2023-05-19T11:52:59;99753.28;;;16.43
77414;BMP280;66486;49.992;19.164;2023-05-19T11:55:24;99752.81;;;16.32
77414;BMP280;66486;49.992;19.164;2023-05-19T12:00:21;99764.97;;;16.27
77414;BMP280;66486;49.992;19.164;2023-05-19T12:02:48;99748.13;;;15.91
77414;BMP280;66486;49.992;19.164;2023-05-19T12:05:20;99758.94;;;15.46
77414;BMP280;66486;49.992;19.164;2023-05-19T12:07:47;99759.47;;;15.09
77414;BMP280;66486;49.992;19.164;2023-05-19T12:10:20;99753.88;;;15.00
77414;BMP280;66486;49.992;19.164;2023-05-19T12:12:47;99745.09;;;15.44
77414;BMP280;66486;49.992;19.164;2023-05-19T12:15:14;99756.66;;;15.61
77414;BMP280;66486;49.992;19.164;2023-05-19T12:17:41;99742.50;;;15.53
77414;BMP280;66486;49.992;19.164;2023-05-19T12:20:07;99752.69;;;15.65
77414;BMP280;66486;49.992;19.164;2023-05-19T12:22:34;99743.81;;;15.93
77414;BMP280;66486;49.992;19.164;2023-05-19T12:25:01;99753.22;;;16.46
77414;BMP280;66486;49.992;19.164;2023-05-19T12:27:29;99743.88;;;16.47
77414;BMP280;66486;49.992;19.164;2023-05-19T12:29:59;99752.75;;;16.35
77414;BMP280;66486;49.992;19.164;2023-05-19T12:32:26;99746.69;;;16.44
77414;BMP280;66486;49.992;19.164;2023-05-19T12:34:55;99739.69;;;16.30
77414;BMP280;66486;49.992;19.164;2023-05-19T12:37:25;99739.44;;;15.83
77414;BMP280;66486;49.992;19.164;2023-05-19T12:39:52;99736.66;;;15.71
77414;BMP280;66486;49.992;19.164;2023-05-19T12:42:18;99743.22;;;15.86
77414;BMP280;66486;49.992;19.164;2023-05-19T12:44:46;99736.44;;;15.94
77414;BMP280;66486;49.992;19.164;2023-05-19T12:47:14;99745.47;;;16.45
77414;BMP280;66486;49.992;19.164;2023-05-19T12:50:12;99740.34;;;15.93
77414;BMP280;66486;49.992;19.164;2023-05-19T12:52:46;99732.63;;;15.91
77414;BMP280;66486;49.992;19.164;2023-05-19T12:55:12;99745.41;;;15.78
77414;BMP280;66486;49.992;19.164;2023-05-19T12:57:40;99737.63;;;15.93
77414;BMP280;66486;49.992;19.164;2023-05-19T13:00:15;99730.97;;;16.22
77414;BMP280;66486;49.992;19.164;2023-05-19T13:03:01;99741.91;;;16.48
77414;BMP280;66486;49.992;19.164;2023-05-19T13:05:31;99739.00;;;16.55
77414;BMP280;66486;49.992;19.164;2023-05-19T13:08:06;99737.78;;;16.56
77414;BMP280;66486;49.992;19.164;2023-05-19T13:10:33;99728.72;;;16.21
77414;BMP280;66486;49.992;19.164;2023-05-19T13:12:59;99735.47;;;16.29
77414;BMP280;66486;49.992;19.164;2023-05-19T13:15:28;99725.88;;;16.24
77414;BMP280;66486;49.992;19.164;2023-05-19T13:17:56;99735.03;;;16.43
77414;BMP280;66486;49.992;19.164;2023-05-19T13:20:23;99729.31;;;16.00
77414;BMP280;66486;49.992;19.164;2023-05-19T13:22:50;99728.84;;;16.01
77414;BMP280;66486;49.992;19.164;2023-05-19T13:25:16;99729.13;;;16.19
77414;BMP280;66486;49.992;19.164;2023-05-19T13:27:44;99718.16;;;16.10
77414;BMP280;66486;49.992;19.164;2023-05-19T13:30:11;99722.03;;;16.09
77414;BMP280;66486;49.992;19.164;2023-05-19T13:32:37;99726.13;;;16.43
77414;BMP280;66486;49.992;19.164;2023-05-19T13:35:03;99722.88;;;16.48
77414;BMP280;66486;49.992;19.164;2023-05-19T13:37:29;99723.84;;;16.41
77414;BMP280;66486;49.992;19.164;2023-05-19T13:39:55;99726.66;;;16.25
77414;BMP280;66486;49.992;19.164;2023-05-19T13:42:22;99715.94;;;16.05
77414;BMP280;66486;49.992;19.164;2023-05-19T13:44:51;99724.31;;;16.11
77414;BMP280;66486;49.992;19.164;2023-05-19T13:47:18;99732.94;;;15.93
77414;BMP280;66486;49.992;19.164;2023-05-19T13:49:44;99724.66;;;15.84
77414;BMP280;66486;49.992;19.164;2023-05-19T13:52:11;99731.06;;;15.78
77414;BMP280;66486;49.992;19.164;2023-05-19T13:54:37;99731.50;;;16.17
77414;BMP280;66486;49.992;19.164;2023-05-19T13:57:03;99728.47;;;15.87
77414;BMP280;66486;49.992;19.164;2023-05-19T13:59:30;99724.97;;;16.15
77414;BMP280;66486;49.992;19.164;2023-05-19T14:01:57;99727.94;;;16.20
77414;BMP280;66486;49.992;19.164;2023-05-19T14:04:23;99728.78;;;16.17
77414;BMP280;66486;49.992;19.164;2023-05-19T14:06:49;99732.09;;;16.25
77414;BMP280;66486;49.992;19.164;2023-05-19T14:09:15;99728.38;;;16.32
77414;BMP280;66486;49.992;19.164;2023-05-19T14:11:41;99737.31;;;16.32
77414;BMP280;66486;49.992;19.164;2023-05-19T14:14:07;99732.13;;;16.09
77414;BMP280;66486;49.992;19.164;2023-05-19T14:16:34;99740.25;;;15.96
77414;BMP280;66486;49.992;19.164;2023-05-19T14:19:00;99733.22;;;15.38
77414;BMP280;66486;49.992;19.164;2023-05-19T14:21:26;99736.25;;;15.08
77414;BMP280;66486;49.992;19.164;2023-05-19T14:23:52;99737.88;;;15.21
77414;BMP280;66486;49.992;19.164;2023-05-19T14:26:18;99738.88;;;15.27
77414;BMP280;66486;49.992;19.164;2023-05-19T14:28:44;99737.09;;;15.21